sensor_id;sensor_type;location;lat;lon;timestamp;temperature;humidity
17348;DHT22;8791;50.876;4.342;2022-08-21T00:00:25;19.00;99.90
17348;DHT22;8791;50.876;4.342;2022-08-21T00:02:55;19.20;99.90
17348;DHT22;8791;50.876;4.342;2022-08-21T00:05:23;19.10;99.90
17348;DHT22;8791;50.876;4.342;2022-08-21T00:07:51;19.10;99.90
17348;DHT22;8791;50.876;4.342;2022-08-21T00:10:19;19.00;99.90
17348;DHT22;8791;50.876;4.342;2022-08-21T00:12:48;19.10;99.90
17348;DHT22;8791;50.876;4.342;2022-08-21T00:15:19;19.10;99.90
17348;DHT22;8791;50.876;4.342;2022-08-21T00:17:46;19.10;99.90
17348;DHT22;8791;50.876;4.342;2022-08-21T00:20:14;19.10;99.90
17348;DHT22;8791;50.876;4.342;2022-08-21T00:22:41;19.00;99.90
17348;DHT22;8791;50.876;4.342;2022-08-21T00:25:09;19.00;99.90
17348;DHT22;8791;50.876;4.342;2022-08-21T00:27:37;18.90;99.90
17348;DHT22;8791;50.876;4.342;2022-08-21T00:30:07;19.10;99.90
17348;DHT22;8791;50.876;4.342;2022-08-21T00:32:37;19.00;99.90
17348;DHT22;8791;50.876;4.342;2022-08-21T00:35:04;18.90;99.90
17348;DHT22;8791;50.876;4.342;2022-08-21T00:37:32;18.90;99.90
17348;DHT22;8791;50.876;4.342;2022-08-21T00:39:58;18.90;99.90
17348;DHT22;8791;50.876;4.342;2022-08-21T00:42:26;18.90;99.90
17348;DHT22;8791;50.876;4.342;2022-08-21T00:44:54;19.00;99.90
17348;DHT22;8791;50.876;4.342;2022-08-21T00:47:22;18.80;99.90
17348;DHT22;8791;50.876;4.342;2022-08-21T00:49:49;18.70;99.90
17348;DHT22;8791;50.876;4.342;2022-08-21T00:52:19;18.70;99.90
17348;DHT22;8791;50.876;4.342;2022-08-21T00:54:47;18.80;99.90
17348;DHT22;8791;50.876;4.342;2022-08-21T00:57:20;18.70;99.90
17348;DHT22;8791;50.876;4.342;2022-08-21T00:59:50;18.60;99.90
17348;DHT22;8791;50.876;4.342;2022-08-21T01:02:18;18.60;99.90
17348;DHT22;8791;50.876;4.342;2022-08-21T01:04:47;18.80;99.90
17348;DHT22;8791;50.876;4.342;2022-08-21T01:07:14;18.80;99.90
17348;DHT22;8791;50.876;4.342;2022-08-21T01:09:41;18.70;99.90
17348;DHT22;8791;50.876;4.342;2022-08-21T01:12:09;18.70;99.90
17348;DHT22;8791;50.876;4.342;2022-08-21T01:14:36;18.80;99.90
17348;DHT22;8791;50.876;4.342;2022-08-21T01:17:04;18.80;99.90
17348;DHT22;8791;50.876;4.342;2022-08-21T01:19:31;18.50;99.90
17348;DHT22;8791;50.876;4.342;2022-08-21T01:22:00;18.30;99.90
17348;DHT22;8791;50.876;4.342;2022-08-21T01:24:27;18.30;99.90
17348;DHT22;8791;50.876;4.342;2022-08-21T01:26:54;18.30;99.90
17348;DHT22;8791;50.876;4.342;2022-08-21T01:29:30;18.30;99.90
17348;DHT22;8791;50.876;4.342;2022-08-21T01:31:58;18.10;99.90
17348;DHT22;8791;50.876;4.342;2022-08-21T01:34:26;18.20;99.90
17348;DHT22;8791;50.876;4.342;2022-08-21T01:36:53;18.10;99.90
17348;DHT22;8791;50.876;4.342;2022-08-21T01:39:21;18.10;99.90
17348;DHT22;8791;50.876;4.342;2022-08-21T01:41:48;18.00;99.90
17348;DHT22;8791;50.876;4.342;2022-08-21T01:44:15;18.00;99.90
17348;DHT22;8791;50.876;4.342;2022-08-21T01:46:41;18.10;99.90
17348;DHT22;8791;50.876;4.342;2022-08-21T01:49:08;18.10;99.90
17348;DHT22;8791;50.876;4.342;2022-08-21T01:51:35;17.90;99.90
17348;DHT22;8791;50.876;4.342;2022-08-21T01:54:02;17.80;99.90
17348;DHT22;8791;50.876;4.342;2022-08-21T01:56:35;17.90;99.90
17348;DHT22;8791;50.876;4.342;2022-08-21T01:59:03;17.90;99.90
17348;DHT22;8791;50.876;4.342;2022-08-21T02:01:30;18.10;99.90
17348;DHT22;8791;50.876;4.342;2022-08-21T02:03:56;18.00;99.90
17348;DHT22;8791;50.876;4.342;2022-08-21T02:06:25;17.80;99.90
17348;DHT22;8791;50.876;4.342;2022-08-21T02:08:52;17.70;99.90
17348;DHT22;8791;50.876;4.342;2022-08-21T02:11:20;17.80;99.90
17348;DHT22;8791;50.876;4.342;2022-08-21T02:13:48;17.70;99.90
17348;DHT22;8791;50.876;4.342;2022-08-21T02:16:15;17.70;99.90
17348;DHT22;8791;50.876;4.342;2022-08-21T02:18:42;17.80;99.90
17348;DHT22;8791;50.876;4.342;2022-08-21T02:21:09;17.80;99.90
17348;DHT22;8791;50.876;4.342;2022-08-21T02:23:36;17.70;99.90
17348;DHT22;8791;50.876;4.342;2022-08-21T02:26:05;17.70;99.90
17348;DHT22;8791;50.876;4.342;2022-08-21T02:28:33;17.70;99.90
17348;DHT22;8791;50.876;4.342;2022-08-21T02:31:02;17.60;99.90
17348;DHT22;8791;50.876;4.342;2022-08-21T02:33:30;17.60;99.90
17348;DHT22;8791;50.876;4.342;2022-08-21T02:35:57;17.60;99.90
17348;DHT22;8791;50.876;4.342;2022-08-21T02:38:27;17.40;99.90
17348;DHT22;8791;50.876;4.342;2022-08-21T02:40:56;17.50;99.90
17348;DHT22;8791;50.876;4.342;2022-08-21T02:43:24;17.50;99.90
17348;DHT22;8791;50.876;4.342;2022-08-21T02:45:54;17.50;99.90
17348;DHT22;8791;50.876;4.342;2022-08-21T02:48:27;17.50;99.90
17348;DHT22;8791;50.876;4.342;2022-08-21T02:50:58;17.50;99.90
17348;DHT22;8791;50.876;4.342;2022-08-21T02:53:26;17.50;99.90
17348;DHT22;8791;50.876;4.342;2022-08-21T02:55:53;17.50;99.90
17348;DHT22;8791;50.876;4.342;2022-08-21T02:58:24;17.50;99.90
17348;DHT22;8791;50.876;4.342;2022-08-21T03:00:52;17.40;99.90
17348;DHT22;8791;50.876;4.342;2022-08-21T03:03:19;17.40;99.90
17348;DHT22;8791;50.876;4.342;2022-08-21T03:05:48;17.40;99.90
17348;DHT22;8791;50.876;4.342;2022-08-21T03:08:15;17.30;99.90
17348;DHT22;8791;50.876;4.342;2022-08-21T03:10:43;17.30;99.90
17348;DHT22;8791;50.876;4.342;2022-08-21T03:13:11;17.40;99.90
17348;DHT22;8791;50.876;4.342;2022-08-21T03:15:38;17.60;99.90
17348;DHT22;8791;50.876;4.342;2022-08-21T03:18:06;17.50;99.90
17348;DHT22;8791;50.876;4.342;2022-08-21T03:20:35;17.50;99.90
17348;DHT22;8791;50.876;4.342;2022-08-21T03:23:04;17.50;99.90
17348;DHT22;8791;50.876;4.342;2022-08-21T03:25:32;17.40;99.90
17348;DHT22;8791;50.876;4.342;2022-08-21T03:28:00;17.40;99.90
17348;DHT22;8791;50.876;4.342;2022-08-21T03:30:27;17.40;99.90
17348;DHT22;8791;50.876;4.342;2022-08-21T03:32:54;17.40;99.90
17348;DHT22;8791;50.876;4.342;2022-08-21T03:35:21;17.20;99.90
17348;DHT22;8791;50.876;4.342;2022-08-21T03:37:47;17.10;99.90
17348;DHT22;8791;50.876;4.342;2022-08-21T03:40:17;17.20;99.90
17348;DHT22;8791;50.876;4.342;2022-08-21T03:42:45;17.20;99.90
17348;DHT22;8791;50.876;4.342;2022-08-21T03:45:14;17.20;99.90
17348;DHT22;8791;50.876;4.342;2022-08-21T03:47:51;17.10;99.90
17348;DHT22;8791;50.876;4.342;2022-08-21T03:50:18;17.10;99.90
17348;DHT22;8791;50.876;4.342;2022-08-21T03:52:45;17.10;99.90
17348;DHT22;8791;50.876;4.342;2022-08-21T03:55:12;16.90;99.90
17348;DHT22;8791;50.876;4.342;2022-08-21T03:57:40;16.80;99.90
17348;DHT22;8791;50.876;4.342;2022-08-21T04:00:09;17.00;99.90
17348;DHT22;8791;50.876;4.342;2022-08-21T04:02:37;17.00;99.90
17348;DHT22;8791;50.876;4.342;2022-08-21T04:05:05;17.00;99.90
17348;DHT22;8791;50.876;4.342;2022-08-21T04:07:32;17.00;99.90
17348;DHT22;8791;50.876;4.342;2022-08-21T04:09:59;16.90;99.90
17348;DHT22;8791;50.876;4.342;2022-08-21T04:12:25;17.00;99.90
17348;DHT22;8791;50.876;4.342;2022-08-21T04:14:54;17.00;99.90
17348;DHT22;8791;50.876;4.342;2022-08-21T04:17:21;17.00;99.90
17348;DHT22;8791;50.876;4.342;2022-08-21T04:19:47;17.00;99.90
17348;DHT22;8791;50.876;4.342;2022-08-21T04:22:15;17.00;99.90
17348;DHT22;8791;50.876;4.342;2022-08-21T04:24:42;16.80;99.90
17348;DHT22;8791;50.876;4.342;2022-08-21T04:27:09;16.80;99.90
17348;DHT22;8791;50.876;4.342;2022-08-21T04:29:36;16.80;99.90
17348;DHT22;8791;50.876;4.342;2022-08-21T04:32:05;16.80;99.90
17348;DHT22;8791;50.876;4.342;2022-08-21T04:34:32;16.80;99.90
17348;DHT22;8791;50.876;4.342;2022-08-21T04:36:59;16.70;99.90
17348;DHT22;8791;50.876;4.342;2022-08-21T04:39:26;16.60;99.90
17348;DHT22;8791;50.876;4.342;2022-08-21T04:41:53;16.60;99.90
17348;DHT22;8791;50.876;4.342;2022-08-21T04:44:19;16.80;99.90
17348;DHT22;8791;50.876;4.342;2022-08-21T04:46:46;16.80;99.90
17348;DHT22;8791;50.876;4.342;2022-08-21T04:49:14;16.80;99.90
17348;DHT22;8791;50.876;4.342;2022-08-21T04:51:41;16.90;99.90
17348;DHT22;8791;50.876;4.342;2022-08-21T04:54:11;16.90;99.90
17348;DHT22;8791;50.876;4.342;2022-08-21T04:56:42;17.00;99.90
17348;DHT22;8791;50.876;4.342;2022-08-21T04:59:13;17.00;99.90
17348;DHT22;8791;50.876;4.342;2022-08-21T05:01:42;17.00;99.90
17348;DHT22;8791;50.876;4.342;2022-08-21T05:04:12;17.00;99.90
17348;DHT22;8791;50.876;4.342;2022-08-21T05:06:43;17.10;99.90
17348;DHT22;8791;50.876;4.342;2022-08-21T05:09:13;17.10;99.90
17348;DHT22;8791;50.876;4.342;2022-08-21T05:11:41;17.00;99.90
17348;DHT22;8791;50.876;4.342;2022-08-21T05:14:08;17.00;99.90
17348;DHT22;8791;50.876;4.342;2022-08-21T05:16:35;17.00;99.90
17348;DHT22;8791;50.876;4.342;2022-08-21T05:19:03;17.10;99.90
17348;DHT22;8791;50.876;4.342;2022-08-21T05:21:30;17.10;99.90
17348;DHT22;8791;50.876;4.342;2022-08-21T05:23:58;17.10;99.90
17348;DHT22;8791;50.876;4.342;2022-08-21T05:26:25;17.10;99.90
17348;DHT22;8791;50.876;4.342;2022-08-21T05:28:52;17.10;99.90
17348;DHT22;8791;50.876;4.342;2022-08-21T05:31:19;17.10;99.90
17348;DHT22;8791;50.876;4.342;2022-08-21T05:33:46;17.20;99.90
17348;DHT22;8791;50.876;4.342;2022-08-21T05:36:12;17.30;99.90
17348;DHT22;8791;50.876;4.342;2022-08-21T05:38:40;17.30;99.90
17348;DHT22;8791;50.876;4.342;2022-08-21T05:41:08;17.10;99.90
17348;DHT22;8791;50.876;4.342;2022-08-21T05:43:35;17.10;99.90
17348;DHT22;8791;50.876;4.342;2022-08-21T05:46:02;17.20;99.90
17348;DHT22;8791;50.876;4.342;2022-08-21T05:48:30;17.30;99.90
17348;DHT22;8791;50.876;4.342;2022-08-21T05:50:58;17.30;99.90
17348;DHT22;8791;50.876;4.342;2022-08-21T05:53:29;17.50;99.90
17348;DHT22;8791;50.876;4.342;2022-08-21T05:55:56;17.40;99.90
17348;DHT22;8791;50.876;4.342;2022-08-21T05:58:25;17.40;99.90
17348;DHT22;8791;50.876;4.342;2022-08-21T06:00:52;17.30;99.90
17348;DHT22;8791;50.876;4.342;2022-08-21T06:03:21;17.40;99.90
17348;DHT22;8791;50.876;4.342;2022-08-21T06:05:48;17.40;99.90
17348;DHT22;8791;50.876;4.342;2022-08-21T06:08:16;17.40;99.90
17348;DHT22;8791;50.876;4.342;2022-08-21T06:10:43;17.50;99.90
17348;DHT22;8791;50.876;4.342;2022-08-21T06:13:11;17.50;99.90
17348;DHT22;8791;50.876;4.342;2022-08-21T06:15:39;17.60;99.90
17348;DHT22;8791;50.876;4.342;2022-08-21T06:18:06;17.60;99.90
17348;DHT22;8791;50.876;4.342;2022-08-21T06:20:34;17.60;99.90
17348;DHT22;8791;50.876;4.342;2022-08-21T06:23:01;17.70;99.90
17348;DHT22;8791;50.876;4.342;2022-08-21T06:25:28;17.60;99.90
17348;DHT22;8791;50.876;4.342;2022-08-21T06:28:00;17.60;99.90
17348;DHT22;8791;50.876;4.342;2022-08-21T06:30:28;17.60;99.90
17348;DHT22;8791;50.876;4.342;2022-08-21T06:32:56;17.70;99.90
17348;DHT22;8791;50.876;4.342;2022-08-21T06:35:23;17.90;99.90
17348;DHT22;8791;50.876;4.342;2022-08-21T06:37:50;18.00;99.90
17348;DHT22;8791;50.876;4.342;2022-08-21T06:40:17;17.80;99.90
17348;DHT22;8791;50.876;4.342;2022-08-21T06:42:44;17.80;99.90
17348;DHT22;8791;50.876;4.342;2022-08-21T06:45:11;17.90;99.90
17348;DHT22;8791;50.876;4.342;2022-08-21T06:47:38;18.10;99.90
17348;DHT22;8791;50.876;4.342;2022-08-21T06:50:08;18.20;99.90
17348;DHT22;8791;50.876;4.342;2022-08-21T06:52:36;18.30;99.90
17348;DHT22;8791;50.876;4.342;2022-08-21T06:55:06;18.50;99.90
17348;DHT22;8791;50.876;4.342;2022-08-21T06:57:33;18.40;99.90
17348;DHT22;8791;50.876;4.342;2022-08-21T07:00:01;18.40;99.90
17348;DHT22;8791;50.876;4.342;2022-08-21T07:02:28;18.50;99.90
17348;DHT22;8791;50.876;4.342;2022-08-21T07:04:55;18.70;99.90
17348;DHT22;8791;50.876;4.342;2022-08-21T07:07:23;18.80;99.90
17348;DHT22;8791;50.876;4.342;2022-08-21T07:09:50;18.90;99.90
17348;DHT22;8791;50.876;4.342;2022-08-21T07:12:17;19.00;99.90
17348;DHT22;8791;50.876;4.342;2022-08-21T07:14:43;19.00;99.90
17348;DHT22;8791;50.876;4.342;2022-08-21T07:17:10;19.20;99.90
17348;DHT22;8791;50.876;4.342;2022-08-21T07:19:37;19.30;99.90
17348;DHT22;8791;50.876;4.342;2022-08-21T07:22:04;19.30;99.90
17348;DHT22;8791;50.876;4.342;2022-08-21T07:24:32;19.40;99.90
17348;DHT22;8791;50.876;4.342;2022-08-21T07:26:59;19.70;99.90
17348;DHT22;8791;50.876;4.342;2022-08-21T07:29:26;19.70;99.90
17348;DHT22;8791;50.876;4.342;2022-08-21T07:31:53;19.90;99.90
17348;DHT22;8791;50.876;4.342;2022-08-21T07:34:20;19.90;99.90
17348;DHT22;8791;50.876;4.342;2022-08-21T07:36:47;20.10;99.90
17348;DHT22;8791;50.876;4.342;2022-08-21T07:39:14;20.10;99.90
17348;DHT22;8791;50.876;4.342;2022-08-21T07:41:42;20.20;99.90
17348;DHT22;8791;50.876;4.342;2022-08-21T07:44:09;20.30;99.90
17348;DHT22;8791;50.876;4.342;2022-08-21T07:46:36;20.40;99.90
17348;DHT22;8791;50.876;4.342;2022-08-21T07:49:03;20.60;99.90
17348;DHT22;8791;50.876;4.342;2022-08-21T07:51:30;20.50;99.90
17348;DHT22;8791;50.876;4.342;2022-08-21T07:53:58;20.60;99.90
17348;DHT22;8791;50.876;4.342;2022-08-21T07:56:25;20.70;99.90
17348;DHT22;8791;50.876;4.342;2022-08-21T07:58:53;20.80;99.90
17348;DHT22;8791;50.876;4.342;2022-08-21T08:01:21;20.90;99.90
17348;DHT22;8791;50.876;4.342;2022-08-21T08:03:48;20.70;99.90
17348;DHT22;8791;50.876;4.342;2022-08-21T08:06:15;20.90;99.90
17348;DHT22;8791;50.876;4.342;2022-08-21T08:08:44;20.90;99.90
17348;DHT22;8791;50.876;4.342;2022-08-21T08:11:12;20.90;99.90
17348;DHT22;8791;50.876;4.342;2022-08-21T08:13:42;21.00;99.90
17348;DHT22;8791;50.876;4.342;2022-08-21T08:16:11;21.00;99.90
17348;DHT22;8791;50.876;4.342;2022-08-21T08:18:39;21.00;99.90
17348;DHT22;8791;50.876;4.342;2022-08-21T08:21:06;20.70;99.90
17348;DHT22;8791;50.876;4.342;2022-08-21T08:23:33;20.80;99.90
17348;DHT22;8791;50.876;4.342;2022-08-21T08:26:00;20.90;99.90
17348;DHT22;8791;50.876;4.342;2022-08-21T08:28:28;20.80;99.90
17348;DHT22;8791;50.876;4.342;2022-08-21T08:30:57;20.90;99.90
17348;DHT22;8791;50.876;4.342;2022-08-21T08:33:25;20.90;99.90
17348;DHT22;8791;50.876;4.342;2022-08-21T08:35:53;21.00;99.90
17348;DHT22;8791;50.876;4.342;2022-08-21T08:38:22;21.00;99.90
17348;DHT22;8791;50.876;4.342;2022-08-21T08:40:53;21.10;99.90
17348;DHT22;8791;50.876;4.342;2022-08-21T08:43:22;21.20;99.90
17348;DHT22;8791;50.876;4.342;2022-08-21T08:45:51;21.40;99.90
17348;DHT22;8791;50.876;4.342;2022-08-21T08:48:45;21.60;99.90
17348;DHT22;8791;50.876;4.342;2022-08-21T08:51:18;21.60;99.90
17348;DHT22;8791;50.876;4.342;2022-08-21T08:53:52;21.50;99.90
17348;DHT22;8791;50.876;4.342;2022-08-21T08:56:26;21.60;99.90
17348;DHT22;8791;50.876;4.342;2022-08-21T08:58:56;21.70;99.90
17348;DHT22;8791;50.876;4.342;2022-08-21T09:01:25;21.60;99.90
17348;DHT22;8791;50.876;4.342;2022-08-21T09:03:54;21.80;99.90
17348;DHT22;8791;50.876;4.342;2022-08-21T09:06:32;22.00;99.90
17348;DHT22;8791;50.876;4.342;2022-08-21T09:09:10;22.00;99.90
17348;DHT22;8791;50.876;4.342;2022-08-21T09:11:48;22.20;99.90
17348;DHT22;8791;50.876;4.342;2022-08-21T09:14:22;22.20;99.90
17348;DHT22;8791;50.876;4.342;2022-08-21T09:16:58;22.20;99.90
17348;DHT22;8791;50.876;4.342;2022-08-21T09:19:44;22.30;99.90
17348;DHT22;8791;50.876;4.342;2022-08-21T09:22:22;22.30;99.90
17348;DHT22;8791;50.876;4.342;2022-08-21T09:24:55;22.30;99.90
17348;DHT22;8791;50.876;4.342;2022-08-21T09:27:26;22.20;99.90
17348;DHT22;8791;50.876;4.342;2022-08-21T09:29:54;22.50;99.90
17348;DHT22;8791;50.876;4.342;2022-08-21T09:32:24;22.80;99.90
17348;DHT22;8791;50.876;4.342;2022-08-21T09:34:58;22.80;99.90
17348;DHT22;8791;50.876;4.342;2022-08-21T09:37:26;22.70;99.90
17348;DHT22;8791;50.876;4.342;2022-08-21T09:39:55;22.90;99.90
17348;DHT22;8791;50.876;4.342;2022-08-21T09:42:25;23.00;99.90
17348;DHT22;8791;50.876;4.342;2022-08-21T09:45:08;23.10;99.90
17348;DHT22;8791;50.876;4.342;2022-08-21T09:47:36;23.10;99.90
17348;DHT22;8791;50.876;4.342;2022-08-21T09:50:13;23.20;99.90
17348;DHT22;8791;50.876;4.342;2022-08-21T09:52:46;23.30;99.90
17348;DHT22;8791;50.876;4.342;2022-08-21T09:55:21;23.20;99.90
17348;DHT22;8791;50.876;4.342;2022-08-21T09:58:12;23.20;99.90
17348;DHT22;8791;50.876;4.342;2022-08-21T10:00:39;22.80;99.90
17348;DHT22;8791;50.876;4.342;2022-08-21T10:03:13;22.80;99.90
17348;DHT22;8791;50.876;4.342;2022-08-21T10:05:55;22.90;99.90
17348;DHT22;8791;50.876;4.342;2022-08-21T10:08:24;22.90;99.90
17348;DHT22;8791;50.876;4.342;2022-08-21T10:10:55;22.90;99.90
17348;DHT22;8791;50.876;4.342;2022-08-21T10:13:31;22.80;99.90
17348;DHT22;8791;50.876;4.342;2022-08-21T10:16:12;22.60;99.90
17348;DHT22;8791;50.876;4.342;2022-08-21T10:18:44;22.80;99.90
17348;DHT22;8791;50.876;4.342;2022-08-21T10:21:23;22.80;99.90
17348;DHT22;8791;50.876;4.342;2022-08-21T10:24:01;23.10;99.90
17348;DHT22;8791;50.876;4.342;2022-08-21T10:26:43;23.00;99.90
17348;DHT22;8791;50.876;4.342;2022-08-21T10:29:17;22.90;99.90
17348;DHT22;8791;50.876;4.342;2022-08-21T10:31:53;23.00;99.90
17348;DHT22;8791;50.876;4.342;2022-08-21T10:34:41;23.10;99.90
17348;DHT22;8791;50.876;4.342;2022-08-21T10:37:22;23.20;99.90
17348;DHT22;8791;50.876;4.342;2022-08-21T10:40:02;23.10;99.90
17348;DHT22;8791;50.876;4.342;2022-08-21T10:42:54;23.20;99.90
17348;DHT22;8791;50.876;4.342;2022-08-21T10:45:36;23.40;99.90
17348;DHT22;8791;50.876;4.342;2022-08-21T10:48:07;23.50;99.90
17348;DHT22;8791;50.876;4.342;2022-08-21T10:50:40;23.50;99.90
17348;DHT22;8791;50.876;4.342;2022-08-21T10:53:19;23.50;99.90
17348;DHT22;8791;50.876;4.342;2022-08-21T10:55:51;23.40;99.90
17348;DHT22;8791;50.876;4.342;2022-08-21T10:58:28;23.40;99.90
17348;DHT22;8791;50.876;4.342;2022-08-21T11:00:59;23.20;99.90
17348;DHT22;8791;50.876;4.342;2022-08-21T11:03:33;23.40;99.90
17348;DHT22;8791;50.876;4.342;2022-08-21T11:06:08;23.70;99.90
17348;DHT22;8791;50.876;4.342;2022-08-21T11:08:41;24.00;99.90
17348;DHT22;8791;50.876;4.342;2022-08-21T11:11:12;23.90;99.90
17348;DHT22;8791;50.876;4.342;2022-08-21T11:13:43;24.20;99.90
17348;DHT22;8791;50.876;4.342;2022-08-21T11:16:18;24.20;99.90
17348;DHT22;8791;50.876;4.342;2022-08-21T11:18:53;24.30;99.90
17348;DHT22;8791;50.876;4.342;2022-08-21T11:21:37;24.30;99.90
17348;DHT22;8791;50.876;4.342;2022-08-21T11:24:21;24.50;99.90
17348;DHT22;8791;50.876;4.342;2022-08-21T11:26:57;24.60;99.90
17348;DHT22;8791;50.876;4.342;2022-08-21T11:29:28;24.50;99.90
17348;DHT22;8791;50.876;4.342;2022-08-21T11:32:20;24.40;99.90
17348;DHT22;8791;50.876;4.342;2022-08-21T11:35:00;24.50;99.90
17348;DHT22;8791;50.876;4.342;2022-08-21T11:37:42;24.50;99.90
17348;DHT22;8791;50.876;4.342;2022-08-21T11:40:19;24.40;99.90
17348;DHT22;8791;50.876;4.342;2022-08-21T11:42:58;24.20;99.90
17348;DHT22;8791;50.876;4.342;2022-08-21T11:45:30;24.30;99.90
17348;DHT22;8791;50.876;4.342;2022-08-21T11:48:07;24.40;99.90
17348;DHT22;8791;50.876;4.342;2022-08-21T11:50:40;24.40;99.90
17348;DHT22;8791;50.876;4.342;2022-08-21T11:53:12;24.60;99.90
17348;DHT22;8791;50.876;4.342;2022-08-21T11:55:44;24.40;99.90
17348;DHT22;8791;50.876;4.342;2022-08-21T11:58:18;24.40;99.90
17348;DHT22;8791;50.876;4.342;2022-08-21T12:00:49;24.30;99.90
17348;DHT22;8791;50.876;4.342;2022-08-21T12:03:25;24.30;99.90
17348;DHT22;8791;50.876;4.342;2022-08-21T12:05:54;24.40;99.90
17348;DHT22;8791;50.876;4.342;2022-08-21T12:08:30;24.70;99.90
17348;DHT22;8791;50.876;4.342;2022-08-21T12:11:05;24.90;99.90
17348;DHT22;8791;50.876;4.342;2022-08-21T12:13:34;25.10;99.90
17348;DHT22;8791;50.876;4.342;2022-08-21T12:16:06;25.30;99.90
17348;DHT22;8791;50.876;4.342;2022-08-21T12:18:34;25.20;99.90
17348;DHT22;8791;50.876;4.342;2022-08-21T12:21:16;25.30;99.90
17348;DHT22;8791;50.876;4.342;2022-08-21T12:23:46;25.40;99.90
17348;DHT22;8791;50.876;4.342;2022-08-21T12:26:26;25.50;99.90
17348;DHT22;8791;50.876;4.342;2022-08-21T12:29:05;25.60;99.90
17348;DHT22;8791;50.876;4.342;2022-08-21T12:31:32;25.60;99.90
17348;DHT22;8791;50.876;4.342;2022-08-21T12:34:01;25.80;99.90
17348;DHT22;8791;50.876;4.342;2022-08-21T12:36:40;26.00;99.90
17348;DHT22;8791;50.876;4.342;2022-08-21T12:39:14;25.80;99.90
17348;DHT22;8791;50.876;4.342;2022-08-21T12:41:51;25.60;99.90
17348;DHT22;8791;50.876;4.342;2022-08-21T12:44:24;25.50;99.90
17348;DHT22;8791;50.876;4.342;2022-08-21T12:46:57;25.80;99.90
17348;DHT22;8791;50.876;4.342;2022-08-21T12:49:28;26.20;99.90
17348;DHT22;8791;50.876;4.342;2022-08-21T12:52:09;26.10;99.90
17348;DHT22;8791;50.876;4.342;2022-08-21T12:54:41;26.10;99.90
17348;DHT22;8791;50.876;4.342;2022-08-21T12:57:18;26.00;99.90
17348;DHT22;8791;50.876;4.342;2022-08-21T12:59:46;25.80;99.90
17348;DHT22;8791;50.876;4.342;2022-08-21T13:02:20;25.60;99.90
17348;DHT22;8791;50.876;4.342;2022-08-21T13:04:49;25.50;99.90
17348;DHT22;8791;50.876;4.342;2022-08-21T13:07:24;25.50;99.90
17348;DHT22;8791;50.876;4.342;2022-08-21T13:09:55;25.50;99.90
17348;DHT22;8791;50.876;4.342;2022-08-21T13:12:25;25.70;99.90
17348;DHT22;8791;50.876;4.342;2022-08-21T13:14:56;25.70;99.90
17348;DHT22;8791;50.876;4.342;2022-08-21T13:17:24;25.70;99.90
17348;DHT22;8791;50.876;4.342;2022-08-21T13:19:56;25.60;99.90
17348;DHT22;8791;50.876;4.342;2022-08-21T13:22:24;25.70;99.90
17348;DHT22;8791;50.876;4.342;2022-08-21T13:24:51;25.60;99.90
17348;DHT22;8791;50.876;4.342;2022-08-21T13:27:23;25.70;99.90
17348;DHT22;8791;50.876;4.342;2022-08-21T13:30:04;25.80;99.90
17348;DHT22;8791;50.876;4.342;2022-08-21T13:32:34;26.00;99.90
17348;DHT22;8791;50.876;4.342;2022-08-21T13:35:16;25.50;99.90
17348;DHT22;8791;50.876;4.342;2022-08-21T13:37:46;25.40;99.90
17348;DHT22;8791;50.876;4.342;2022-08-21T13:40:17;25.50;99.90
17348;DHT22;8791;50.876;4.342;2022-08-21T13:42:46;25.70;99.90
17348;DHT22;8791;50.876;4.342;2022-08-21T13:45:24;25.70;99.90
17348;DHT22;8791;50.876;4.342;2022-08-21T13:47:52;25.70;99.90
17348;DHT22;8791;50.876;4.342;2022-08-21T13:50:21;25.70;99.90
17348;DHT22;8791;50.876;4.342;2022-08-21T13:53:00;25.50;99.90
17348;DHT22;8791;50.876;4.342;2022-08-21T13:55:38;25.40;99.90
17348;DHT22;8791;50.876;4.342;2022-08-21T13:58:05;25.70;99.90
17348;DHT22;8791;50.876;4.342;2022-08-21T14:00:43;25.80;99.90
17348;DHT22;8791;50.876;4.342;2022-08-21T14:03:11;26.10;99.90
17348;DHT22;8791;50.876;4.342;2022-08-21T14:05:44;26.10;99.90
17348;DHT22;8791;50.876;4.342;2022-08-21T14:08:14;26.20;99.90
17348;DHT22;8791;50.876;4.342;2022-08-21T14:10:44;26.20;99.90
17348;DHT22;8791;50.876;4.342;2022-08-21T14:13:29;26.20;99.90
17348;DHT22;8791;50.876;4.342;2022-08-21T14:15:59;26.10;99.90
17348;DHT22;8791;50.876;4.342;2022-08-21T14:18:26;26.00;99.90
17348;DHT22;8791;50.876;4.342;2022-08-21T14:21:04;26.10;99.90
17348;DHT22;8791;50.876;4.342;2022-08-21T14:23:31;25.80;99.90
17348;DHT22;8791;50.876;4.342;2022-08-21T14:26:00;25.80;99.90
17348;DHT22;8791;50.876;4.342;2022-08-21T14:28:29;25.80;99.90
17348;DHT22;8791;50.876;4.342;2022-08-21T14:31:12;25.70;99.90
17348;DHT22;8791;50.876;4.342;2022-08-21T14:33:39;25.80;99.90
17348;DHT22;8791;50.876;4.342;2022-08-21T14:36:06;25.80;99.90
17348;DHT22;8791;50.876;4.342;2022-08-21T14:38:36;25.50;99.90
17348;DHT22;8791;50.876;4.342;2022-08-21T14:41:11;25.50;99.90
17348;DHT22;8791;50.876;4.342;2022-08-21T14:43:41;25.70;99.90
17348;DHT22;8791;50.876;4.342;2022-08-21T14:46:11;26.00;99.90
17348;DHT22;8791;50.876;4.342;2022-08-21T14:48:38;26.20;99.90
17348;DHT22;8791;50.876;4.342;2022-08-21T14:51:05;26.00;99.90
17348;DHT22;8791;50.876;4.342;2022-08-21T14:53:32;26.10;99.90
17348;DHT22;8791;50.876;4.342;2022-08-21T14:55:59;26.20;99.90
17348;DHT22;8791;50.876;4.342;2022-08-21T14:58:32;26.30;99.90
17348;DHT22;8791;50.876;4.342;2022-08-21T15:01:00;26.40;99.90
17348;DHT22;8791;50.876;4.342;2022-08-21T15:03:31;26.30;99.90
17348;DHT22;8791;50.876;4.342;2022-08-21T15:05:58;26.00;99.90
17348;DHT22;8791;50.876;4.342;2022-08-21T15:08:25;26.00;99.90
17348;DHT22;8791;50.876;4.342;2022-08-21T15:10:53;26.10;99.90
17348;DHT22;8791;50.876;4.342;2022-08-21T15:13:20;26.30;99.90
17348;DHT22;8791;50.876;4.342;2022-08-21T15:15:48;26.40;99.90
17348;DHT22;8791;50.876;4.342;2022-08-21T15:18:18;26.30;99.90
17348;DHT22;8791;50.876;4.342;2022-08-21T15:20:46;26.40;99.90
17348;DHT22;8791;50.876;4.342;2022-08-21T15:23:14;26.30;99.90
17348;DHT22;8791;50.876;4.342;2022-08-21T15:25:42;26.20;99.90
17348;DHT22;8791;50.876;4.342;2022-08-21T15:28:10;26.20;99.90
17348;DHT22;8791;50.876;4.342;2022-08-21T15:30:39;26.00;99.90
17348;DHT22;8791;50.876;4.342;2022-08-21T15:33:06;26.10;99.90
17348;DHT22;8791;50.876;4.342;2022-08-21T15:35:34;26.00;99.90
17348;DHT22;8791;50.876;4.342;2022-08-21T15:38:03;26.00;99.90
17348;DHT22;8791;50.876;4.342;2022-08-21T15:40:30;25.90;99.90
17348;DHT22;8791;50.876;4.342;2022-08-21T15:42:59;26.00;99.90
17348;DHT22;8791;50.876;4.342;2022-08-21T15:45:27;26.10;99.90
17348;DHT22;8791;50.876;4.342;2022-08-21T15:47:54;26.00;99.90
17348;DHT22;8791;50.876;4.342;2022-08-21T15:50:22;25.90;99.90
17348;DHT22;8791;50.876;4.342;2022-08-21T15:52:49;25.90;99.90
17348;DHT22;8791;50.876;4.342;2022-08-21T15:55:17;25.90;99.90
17348;DHT22;8791;50.876;4.342;2022-08-21T15:57:46;26.00;99.90
17348;DHT22;8791;50.876;4.342;2022-08-21T16:00:16;25.90;99.90
17348;DHT22;8791;50.876;4.342;2022-08-21T16:02:45;25.60;99.90